sensor_id;sensor_type;location;lat;lon;timestamp;pressure;altitude;pressure_sealevel;temperature;humidity
12666;BME280;58531;59.050;17.416;2023-04-21T00:00:51;102095.44;;;2.07;67.29
12666;BME280;58531;59.050;17.416;2023-04-21T00:03:18;102089.81;;;2.08;67.14
12666;BME280;58531;59.050;17.416;2023-04-21T00:05:46;102090.91;;;2.07;66.97
12666;BME280;58531;59.050;17.416;2023-04-21T00:08:14;102088.88;;;2.01;67.44
12666;BME280;58531;59.050;17.416;2023-04-21T00:10:41;102088.72;;;1.94;67.73
12666;BME280;58531;59.050;17.416;2023-04-21T00:13:08;102093.13;;;1.90;68.13
12666;BME280;58531;59.050;17.416;2023-04-21T00:15:35;102087.38;;;1.84;68.68
12666;BME280;58531;59.050;17.416;2023-04-21T00:18:04;102081.56;;;1.79;69.32
12666;BME280;58531;59.050;17.416;2023-04-21T00:20:31;102081.50;;;1.75;69.78
12666;BME280;58531;59.050;17.416;2023-04-21T00:22:58;102077.34;;;1.74;70.42
12666;BME280;58531;59.050;17.416;2023-04-21T00:25:25;102075.72;;;1.70;70.59
12666;BME280;58531;59.050;17.416;2023-04-21T00:27:52;102081.25;;;1.65;70.94
12666;BME280;58531;59.050;17.416;2023-04-21T00:30:19;102078.19;;;1.63;71.20
12666;BME280;58531;59.050;17.416;2023-04-21T00:32:46;102077.66;;;1.57;71.95
12666;BME280;58531;59.050;17.416;2023-04-21T00:35:14;102071.28;;;1.58;71.98
12666;BME280;58531;59.050;17.416;2023-04-21T00:37:41;102070.53;;;1.58;72.33
12666;BME280;58531;59.050;17.416;2023-04-21T00:40:09;102070.53;;;1.58;73.23
12666;BME280;58531;59.050;17.416;2023-04-21T00:42:36;102070.97;;;1.60;72.58
12666;BME280;58531;59.050;17.416;2023-04-21T00:45:03;102062.72;;;1.61;72.72
12666;BME280;58531;59.050;17.416;2023-04-21T00:47:30;102073.66;;;1.63;72.71
12666;BME280;58531;59.050;17.416;2023-04-21T00:49:56;102060.06;;;1.61;72.64
12666;BME280;58531;59.050;17.416;2023-04-21T00:52:25;102057.44;;;1.61;73.36
12666;BME280;58531;59.050;17.416;2023-04-21T00:54:52;102055.59;;;1.62;73.24
12666;BME280;58531;59.050;17.416;2023-04-21T00:57:19;102053.97;;;1.57;73.42
12666;BME280;58531;59.050;17.416;2023-04-21T00:59:46;102054.31;;;1.56;73.79
12666;BME280;58531;59.050;17.416;2023-04-21T01:02:14;102054.31;;;1.56;73.96
12666;BME280;58531;59.050;17.416;2023-04-21T01:04:42;102049.38;;;1.54;74.20
12666;BME280;58531;59.050;17.416;2023-04-21T01:07:10;102050.41;;;1.50;74.23
12666;BME280;58531;59.050;17.416;2023-04-21T01:09:38;102050.66;;;1.45;74.72
12666;BME280;58531;59.050;17.416;2023-04-21T01:12:07;102047.59;;;1.43;75.38
12666;BME280;58531;59.050;17.416;2023-04-21T01:14:34;102043.00;;;1.40;76.18
12666;BME280;58531;59.050;17.416;2023-04-21T01:17:01;102039.84;;;1.34;76.32
12666;BME280;58531;59.050;17.416;2023-04-21T01:19:31;102041.88;;;1.25;77.45
12666;BME280;58531;59.050;17.416;2023-04-21T01:22:01;102034.56;;;1.19;77.14
12666;BME280;58531;59.050;17.416;2023-04-21T01:24:36;102038.53;;;1.13;77.73
12666;BME280;58531;59.050;17.416;2023-04-21T01:27:06;102030.91;;;1.08;78.31
12666;BME280;58531;59.050;17.416;2023-04-21T01:29:34;102029.78;;;1.09;78.35
12666;BME280;58531;59.050;17.416;2023-04-21T01:32:04;102031.66;;;1.09;78.52
12666;BME280;58531;59.050;17.416;2023-04-21T01:34:31;102042.84;;;1.06;78.64
12666;BME280;58531;59.050;17.416;2023-04-21T01:36:58;102029.84;;;0.97;79.27
12666;BME280;58531;59.050;17.416;2023-04-21T01:39:26;102037.09;;;0.88;79.69
12666;BME280;58531;59.050;17.416;2023-04-21T01:41:54;102027.25;;;0.85;79.53
12666;BME280;58531;59.050;17.416;2023-04-21T01:44:23;102030.25;;;0.84;79.67
12666;BME280;58531;59.050;17.416;2023-04-21T01:46:50;102029.81;;;0.82;79.52
12666;BME280;58531;59.050;17.416;2023-04-21T01:49:17;102028.28;;;0.81;80.13
12666;BME280;58531;59.050;17.416;2023-04-21T01:51:44;102019.53;;;0.77;80.16
12666;BME280;58531;59.050;17.416;2023-04-21T01:54:11;102022.72;;;0.70;80.31
12666;BME280;58531;59.050;17.416;2023-04-21T01:56:39;102017.72;;;0.65;80.79
12666;BME280;58531;59.050;17.416;2023-04-21T01:59:06;102017.50;;;0.58;81.42
12666;BME280;58531;59.050;17.416;2023-04-21T02:01:33;102016.63;;;0.54;81.95
12666;BME280;58531;59.050;17.416;2023-04-21T02:04:01;102016.44;;;0.47;82.07
12666;BME280;58531;59.050;17.416;2023-04-21T02:06:28;102005.50;;;0.45;82.68
12666;BME280;58531;59.050;17.416;2023-04-21T02:08:55;102010.75;;;0.45;83.04
12666;BME280;58531;59.050;17.416;2023-04-21T02:11:22;102008.13;;;0.45;83.10
12666;BME280;58531;59.050;17.416;2023-04-21T02:13:51;102002.88;;;0.45;83.37
12666;BME280;58531;59.050;17.416;2023-04-21T02:16:18;102006.59;;;0.44;83.38
12666;BME280;58531;59.050;17.416;2023-04-21T02:18:46;102007.25;;;0.41;83.42
12666;BME280;58531;59.050;17.416;2023-04-21T02:21:13;102014.25;;;0.37;84.00
12666;BME280;58531;59.050;17.416;2023-04-21T02:23:40;102007.81;;;0.35;84.07
12666;BME280;58531;59.050;17.416;2023-04-21T02:26:07;102007.28;;;0.29;84.91
12666;BME280;58531;59.050;17.416;2023-04-21T02:28:34;101997.00;;;0.24;84.50
12666;BME280;58531;59.050;17.416;2023-04-21T02:31:02;102010.03;;;0.21;84.73
12666;BME280;58531;59.050;17.416;2023-04-21T02:33:29;102000.53;;;0.16;84.65
12666;BME280;58531;59.050;17.416;2023-04-21T02:35:56;102009.81;;;0.14;85.43
12666;BME280;58531;59.050;17.416;2023-04-21T02:38:23;102003.25;;;0.08;85.82
12666;BME280;58531;59.050;17.416;2023-04-21T02:40:50;102012.13;;;0.03;86.25
12666;BME280;58531;59.050;17.416;2023-04-21T02:43:16;101996.59;;;-0.02;86.76
12666;BME280;58531;59.050;17.416;2023-04-21T02:45:43;101986.31;;;-0.06;87.40
12666;BME280;58531;59.050;17.416;2023-04-21T02:48:12;101988.50;;;-0.08;87.20
12666;BME280;58531;59.050;17.416;2023-04-21T02:50:39;101982.16;;;-0.07;87.31
12666;BME280;58531;59.050;17.416;2023-04-21T02:53:06;101984.78;;;-0.07;87.17
12666;BME280;58531;59.050;17.416;2023-04-21T02:55:33;101979.00;;;-0.13;88.21
12666;BME280;58531;59.050;17.416;2023-04-21T02:58:00;101982.94;;;-0.19;89.01
12666;BME280;58531;59.050;17.416;2023-04-21T03:00:27;101976.03;;;-0.23;88.90
12666;BME280;58531;59.050;17.416;2023-04-21T03:02:53;101980.53;;;-0.24;89.10
12666;BME280;58531;59.050;17.416;2023-04-21T03:05:22;101965.09;;;-0.25;89.14
12666;BME280;58531;59.050;17.416;2023-04-21T03:07:49;101969.94;;;-0.27;89.38
12666;BME280;58531;59.050;17.416;2023-04-21T03:10:16;101965.00;;;-0.29;89.62
12666;BME280;58531;59.050;17.416;2023-04-21T03:12:44;101974.75;;;-0.29;89.94
12666;BME280;58531;59.050;17.416;2023-04-21T03:15:11;101978.22;;;-0.25;90.28
12666;BME280;58531;59.050;17.416;2023-04-21T03:17:39;101969.25;;;-0.24;90.70
12666;BME280;58531;59.050;17.416;2023-04-21T03:20:07;101966.41;;;-0.19;90.80
12666;BME280;58531;59.050;17.416;2023-04-21T03:22:37;101968.16;;;-0.11;90.64
12666;BME280;58531;59.050;17.416;2023-04-21T03:25:04;101969.03;;;-0.07;90.46
12666;BME280;58531;59.050;17.416;2023-04-21T03:27:32;101960.06;;;-0.06;90.11
12666;BME280;58531;59.050;17.416;2023-04-21T03:29:59;101967.28;;;-0.03;89.96
12666;BME280;58531;59.050;17.416;2023-04-21T03:32:25;101965.44;;;-0.03;89.97
12666;BME280;58531;59.050;17.416;2023-04-21T03:34:52;101962.47;;;-0.02;89.34
12666;BME280;58531;59.050;17.416;2023-04-21T03:37:19;101966.28;;;0.01;89.06
12666;BME280;58531;59.050;17.416;2023-04-21T03:39:47;101955.91;;;0.04;89.09
12666;BME280;58531;59.050;17.416;2023-04-21T03:42:14;101960.81;;;0.06;89.88
12666;BME280;58531;59.050;17.416;2023-04-21T03:44:41;101954.47;;;0.07;90.71
12666;BME280;58531;59.050;17.416;2023-04-21T03:47:08;101956.75;;;0.08;90.04
12666;BME280;58531;59.050;17.416;2023-04-21T03:49:35;101959.16;;;0.13;90.50
12666;BME280;58531;59.050;17.416;2023-04-21T03:52:03;101951.72;;;0.15;91.27
12666;BME280;58531;59.050;17.416;2023-04-21T03:54:30;101957.41;;;0.17;91.62
12666;BME280;58531;59.050;17.416;2023-04-21T03:56:58;101956.75;;;0.20;91.44
12666;BME280;58531;59.050;17.416;2023-04-21T03:59:25;101960.34;;;0.28;91.18
12666;BME280;58531;59.050;17.416;2023-04-21T04:01:52;101955.72;;;0.37;90.65
12666;BME280;58531;59.050;17.416;2023-04-21T04:04:19;101962.69;;;0.45;90.11
12666;BME280;58531;59.050;17.416;2023-04-21T04:06:46;101958.81;;;0.54;89.46
12666;BME280;58531;59.050;17.416;2023-04-21T04:09:12;101952.44;;;0.67;88.78
12666;BME280;58531;59.050;17.416;2023-04-21T04:11:39;101955.78;;;0.95;88.89
12666;BME280;58531;59.050;17.416;2023-04-21T04:14:07;101954.31;;;2.25;84.50
12666;BME280;58531;59.050;17.416;2023-04-21T04:16:34;101956.63;;;3.79;77.36
12666;BME280;58531;59.050;17.416;2023-04-21T04:19:01;101955.19;;;5.13;71.03
12666;BME280;58531;59.050;17.416;2023-04-21T04:21:29;101961.94;;;6.08;65.81
12666;BME280;58531;59.050;17.416;2023-04-21T04:23:57;101958.44;;;6.89;62.57
12666;BME280;58531;59.050;17.416;2023-04-21T04:26:24;101963.03;;;7.48;59.00
12666;BME280;58531;59.050;17.416;2023-04-21T04:28:51;101950.13;;;7.50;57.89
12666;BME280;58531;59.050;17.416;2023-04-21T04:31:22;101949.34;;;7.42;57.80
12666;BME280;58531;59.050;17.416;2023-04-21T04:33:49;101958.50;;;7.27;58.15
12666;BME280;58531;59.050;17.416;2023-04-21T04:36:16;101953.53;;;7.15;58.56
12666;BME280;58531;59.050;17.416;2023-04-21T04:38:44;101954.22;;;6.67;60.13
12666;BME280;58531;59.050;17.416;2023-04-21T04:41:11;101946.25;;;6.64;60.98
12666;BME280;58531;59.050;17.416;2023-04-21T04:43:38;101947.47;;;7.04;59.71
12666;BME280;58531;59.050;17.416;2023-04-21T04:46:05;101944.78;;;6.94;60.17
12666;BME280;58531;59.050;17.416;2023-04-21T04:48:34;101934.13;;;7.81;57.60
12666;BME280;58531;59.050;17.416;2023-04-21T04:51:01;101945.22;;;8.69;55.04
12666;BME280;58531;59.050;17.416;2023-04-21T04:53:28;101952.41;;;9.30;52.67
12666;BME280;58531;59.050;17.416;2023-04-21T04:55:55;101949.13;;;9.55;51.48
12666;BME280;58531;59.050;17.416;2023-04-21T04:58:23;101946.50;;;9.92;50.45
12666;BME280;58531;59.050;17.416;2023-04-21T05:00:50;101952.19;;;10.28;49.79
12666;BME280;58531;59.050;17.416;2023-04-21T05:03:16;101948.06;;;11.06;48.01
12666;BME280;58531;59.050;17.416;2023-04-21T05:05:45;101949.13;;;12.19;45.54
12666;BME280;58531;59.050;17.416;2023-04-21T05:08:11;101954.19;;;13.20;42.49
12666;BME280;58531;59.050;17.416;2023-04-21T05:10:38;101965.16;;;14.67;40.95
12666;BME280;58531;59.050;17.416;2023-04-21T05:13:05;101964.78;;;15.74;38.59
12666;BME280;58531;59.050;17.416;2023-04-21T05:15:32;101969.44;;;15.73;37.99
12666;BME280;58531;59.050;17.416;2023-04-21T05:17:59;101967.09;;;16.79;36.47
12666;BME280;58531;59.050;17.416;2023-04-21T05:20:25;101968.03;;;18.05;33.98
12666;BME280;58531;59.050;17.416;2023-04-21T05:22:53;101973.41;;;18.32;32.93
12666;BME280;58531;59.050;17.416;2023-04-21T05:25:20;101971.28;;;18.77;31.87
12666;BME280;58531;59.050;17.416;2023-04-21T05:27:47;101967.56;;;19.30;31.76
12666;BME280;58531;59.050;17.416;2023-04-21T05:30:14;101963.22;;;19.85;30.55
12666;BME280;58531;59.050;17.416;2023-04-21T05:32:41;101954.75;;;19.54;30.89
12666;BME280;58531;59.050;17.416;2023-04-21T05:35:08;101957.38;;;19.63;30.42
12666;BME280;58531;59.050;17.416;2023-04-21T05:37:35;101953.78;;;19.95;29.71
12666;BME280;58531;59.050;17.416;2023-04-21T05:40:03;101952.88;;;20.76;29.46
12666;BME280;58531;59.050;17.416;2023-04-21T05:42:30;101953.53;;;19.55;30.67
12666;BME280;58531;59.050;17.416;2023-04-21T05:44:57;101950.47;;;20.63;29.67
12666;BME280;58531;59.050;17.416;2023-04-21T05:47:24;101956.38;;;21.11;28.32
12666;BME280;58531;59.050;17.416;2023-04-21T05:49:51;101960.09;;;22.24;27.06
12666;BME280;58531;59.050;17.416;2023-04-21T05:52:18;101956.53;;;22.12;26.94
12666;BME280;58531;59.050;17.416;2023-04-21T05:54:45;101950.06;;;21.39;28.20
12666;BME280;58531;59.050;17.416;2023-04-21T05:57:13;101952.97;;;22.32;26.22
12666;BME280;58531;59.050;17.416;2023-04-21T05:59:40;101950.09;;;22.77;26.72
12666;BME280;58531;59.050;17.416;2023-04-21T06:02:08;101952.22;;;23.04;25.61
12666;BME280;58531;59.050;17.416;2023-04-21T06:04:34;101950.16;;;22.88;26.44
12666;BME280;58531;59.050;17.416;2023-04-21T06:07:04;101947.75;;;22.59;26.78
12666;BME280;58531;59.050;17.416;2023-04-21T06:09:31;101943.81;;;22.60;26.70
12666;BME280;58531;59.050;17.416;2023-04-21T06:11:58;101944.50;;;23.50;25.33
12666;BME280;58531;59.050;17.416;2023-04-21T06:14:28;101935.41;;;23.86;25.46
12666;BME280;58531;59.050;17.416;2023-04-21T06:16:55;101937.16;;;24.43;24.04
12666;BME280;58531;59.050;17.416;2023-04-21T06:19:21;101940.72;;;25.23;23.11
12666;BME280;58531;59.050;17.416;2023-04-21T06:21:48;101935.63;;;25.89;22.26
12666;BME280;58531;59.050;17.416;2023-04-21T06:24:16;101928.13;;;24.92;23.23
12666;BME280;58531;59.050;17.416;2023-04-21T06:26:49;101928.13;;;24.92;23.69
12666;BME280;58531;59.050;17.416;2023-04-21T06:29:16;101925.72;;;24.72;23.50
12666;BME280;58531;59.050;17.416;2023-04-21T06:31:44;101921.03;;;24.29;24.42
12666;BME280;58531;59.050;17.416;2023-04-21T06:34:11;101920.78;;;24.32;23.52
12666;BME280;58531;59.050;17.416;2023-04-21T06:36:38;101928.34;;;25.05;22.89
12666;BME280;58531;59.050;17.416;2023-04-21T06:39:05;101926.25;;;23.83;24.81
12666;BME280;58531;59.050;17.416;2023-04-21T06:41:32;101923.97;;;24.75;22.58
12666;BME280;58531;59.050;17.416;2023-04-21T06:43:59;101923.63;;;25.00;18.32
12666;BME280;58531;59.050;17.416;2023-04-21T06:46:26;101919.69;;;25.47;18.47
12666;BME280;58531;59.050;17.416;2023-04-21T06:48:54;101923.44;;;25.44;17.42
12666;BME280;58531;59.050;17.416;2023-04-21T06:51:21;101920.13;;;25.05;17.79
12666;BME280;58531;59.050;17.416;2023-04-21T06:53:48;101918.28;;;24.45;18.42
12666;BME280;58531;59.050;17.416;2023-04-21T06:56:15;101920.28;;;24.56;18.38
12666;BME280;58531;59.050;17.416;2023-04-21T06:58:41;101919.13;;;25.08;18.95
12666;BME280;58531;59.050;17.416;2023-04-21T07:01:08;101917.75;;;24.74;18.90
12666;BME280;58531;59.050;17.416;2023-04-21T07:03:35;101920.63;;;25.04;18.51
12666;BME280;58531;59.050;17.416;2023-04-21T07:06:04;101913.53;;;23.69;19.80
12666;BME280;58531;59.050;17.416;2023-04-21T07:08:31;101917.22;;;23.50;20.44
12666;BME280;58531;59.050;17.416;2023-04-21T07:10:58;101915.94;;;23.34;21.61
12666;BME280;58531;59.050;17.416;2023-04-21T07:13:25;101908.78;;;22.11;22.07
12666;BME280;58531;59.050;17.416;2023-04-21T07:15:51;101914.47;;;22.80;21.44
12666;BME280;58531;59.050;17.416;2023-04-21T07:18:18;101912.50;;;22.19;22.49
12666;BME280;58531;59.050;17.416;2023-04-21T07:20:45;101905.59;;;22.91;21.82
12666;BME280;58531;59.050;17.416;2023-04-21T07:23:14;101902.69;;;23.80;20.53
12666;BME280;58531;59.050;17.416;2023-04-21T07:25:40;101900.44;;;24.11;19.94
12666;BME280;58531;59.050;17.416;2023-04-21T07:28:07;101902.94;;;23.98;20.95
12666;BME280;58531;59.050;17.416;2023-04-21T07:30:35;101891.75;;;23.97;22.13
12666;BME280;58531;59.050;17.416;2023-04-21T07:33:02;101891.75;;;24.35;20.84
12666;BME280;58531;59.050;17.416;2023-04-21T07:35:29;101887.50;;;24.39;20.95
12666;BME280;58531;59.050;17.416;2023-04-21T07:37:56;101893.25;;;24.25;21.41
12666;BME280;58531;59.050;17.416;2023-04-21T07:40:24;101893.19;;;23.76;22.20
12666;BME280;58531;59.050;17.416;2023-04-21T07:42:51;101887.09;;;23.11;23.43
12666;BME280;58531;59.050;17.416;2023-04-21T07:45:18;101894.81;;;22.66;23.42
12666;BME280;58531;59.050;17.416;2023-04-21T07:47:45;101880.38;;;22.23;24.10
12666;BME280;58531;59.050;17.416;2023-04-21T07:50:12;101874.34;;;20.72;25.95
12666;BME280;58531;59.050;17.416;2023-04-21T07:52:39;101879.34;;;19.96;27.59
12666;BME280;58531;59.050;17.416;2023-04-21T07:55:06;101874.38;;;19.13;29.63
12666;BME280;58531;59.050;17.416;2023-04-21T07:57:35;101876.31;;;18.34;31.17
12666;BME280;58531;59.050;17.416;2023-04-21T08:00:04;101869.16;;;18.13;30.84
12666;BME280;58531;59.050;17.416;2023-04-21T08:02:31;101873.41;;;18.05;33.39
12666;BME280;58531;59.050;17.416;2023-04-21T08:04:58;101866.69;;;18.24;31.88
12666;BME280;58531;59.050;17.416;2023-04-21T08:07:25;101871.16;;;17.94;32.08
12666;BME280;58531;59.050;17.416;2023-04-21T08:09:52;101856.44;;;17.86;33.39
12666;BME280;58531;59.050;17.416;2023-04-21T08:12:19;101864.13;;;17.79;33.14
12666;BME280;58531;59.050;17.416;2023-04-21T08:14:47;101859.38;;;17.47;34.03
12666;BME280;58531;59.050;17.416;2023-04-21T08:17:14;101851.88;;;17.42;34.84
12666;BME280;58531;59.050;17.416;2023-04-21T08:19:41;101849.75;;;17.19;36.38
12666;BME280;58531;59.050;17.416;2023-04-21T08:22:08;101843.78;;;17.42;36.20
12666;BME280;58531;59.050;17.416;2023-04-21T08:24:35;101841.81;;;17.52;35.08
12666;BME280;58531;59.050;17.416;2023-04-21T08:27:02;101838.69;;;17.44;36.04
12666;BME280;58531;59.050;17.416;2023-04-21T08:29:29;101832.97;;;17.24;35.86
12666;BME280;58531;59.050;17.416;2023-04-21T08:31:57;101830.25;;;17.24;35.82
12666;BME280;58531;59.050;17.416;2023-04-21T08:34:24;101829.06;;;16.98;36.70
12666;BME280;58531;59.050;17.416;2023-04-21T08:36:51;101822.00;;;17.01;37.72
12666;BME280;58531;59.050;17.416;2023-04-21T08:39:18;101827.41;;;17.28;37.56
12666;BME280;58531;59.050;17.416;2023-04-21T08:41:45;101823.09;;;17.39;36.44
12666;BME280;58531;59.050;17.416;2023-04-21T08:44:13;101826.09;;;17.32;37.62
12666;BME280;58531;59.050;17.416;2023-04-21T08:46:42;101820.69;;;17.41;36.23
12666;BME280;58531;59.050;17.416;2023-04-21T08:49:12;101827.84;;;17.26;36.91
12666;BME280;58531;59.050;17.416;2023-04-21T08:51:42;101825.44;;;17.28;36.82
12666;BME280;58531;59.050;17.416;2023-04-21T08:54:09;101826.06;;;17.14;37.26
12666;BME280;58531;59.050;17.416;2023-04-21T08:56:36;101819.78;;;16.99;37.81
12666;BME280;58531;59.050;17.416;2023-04-21T08:59:04;101818.53;;;17.09;37.03
12666;BME280;58531;59.050;17.416;2023-04-21T09:01:31;101817.03;;;17.08;37.27
12666;BME280;58531;59.050;17.416;2023-04-21T09:04:16;101815.84;;;17.18;36.97
12666;BME280;58531;59.050;17.416;2023-04-21T09:06:43;101815.84;;;17.18;38.08
12666;BME280;58531;59.050;17.416;2023-04-21T09:09:10;101817.94;;;17.23;37.51
12666;BME280;58531;59.050;17.416;2023-04-21T09:11:37;101810.75;;;17.29;37.51
12666;BME280;58531;59.050;17.416;2023-04-21T09:14:04;101813.59;;;17.53;37.62
12666;BME280;58531;59.050;17.416;2023-04-21T09:16:31;101805.28;;;17.83;36.97
12666;BME280;58531;59.050;17.416;2023-04-21T09:18:59;101811.22;;;18.05;37.87
12666;BME280;58531;59.050;17.416;2023-04-21T09:21:28;101806.03;;;18.25;36.40
12666;BME280;58531;59.050;17.416;2023-04-21T09:23:56;101804.22;;;18.22;35.92
12666;BME280;58531;59.050;17.416;2023-04-21T09:26:23;101802.38;;;18.37;35.70
12666;BME280;58531;59.050;17.416;2023-04-21T09:28:50;101800.34;;;18.14;35.16
12666;BME280;58531;59.050;17.416;2023-04-21T09:31:19;101800.47;;;17.87;35.43
12666;BME280;58531;59.050;17.416;2023-04-21T09:33:46;101793.59;;;17.77;36.50
12666;BME280;58531;59.050;17.416;2023-04-21T09:36:20;101784.59;;;17.62;36.19
12666;BME280;58531;59.050;17.416;2023-04-21T09:38:59;101783.94;;;17.85;35.81
12666;BME280;58531;59.050;17.416;2023-04-21T09:41:26;101780.66;;;17.81;36.01
12666;BME280;58531;59.050;17.416;2023-04-21T09:43:53;101777.66;;;17.79;36.11
12666;BME280;58531;59.050;17.416;2023-04-21T09:46:20;101780.97;;;17.74;35.96
12666;BME280;58531;59.050;17.416;2023-04-21T09:48:48;101773.75;;;17.80;36.09
12666;BME280;58531;59.050;17.416;2023-04-21T09:51:17;101766.63;;;17.91;36.07
12666;BME280;58531;59.050;17.416;2023-04-21T09:53:45;101761.66;;;17.58;36.64
12666;BME280;58531;59.050;17.416;2023-04-21T09:56:20;101756.03;;;17.79;35.54
12666;BME280;58531;59.050;17.416;2023-04-21T09:58:51;101748.50;;;17.92;36.51
12666;BME280;58531;59.050;17.416;2023-04-21T10:01:19;101752.38;;;18.23;35.49
12666;BME280;58531;59.050;17.416;2023-04-21T10:03:47;101743.41;;;18.17;35.13
12666;BME280;58531;59.050;17.416;2023-04-21T10:06:14;101747.91;;;17.88;34.68
12666;BME280;58531;59.050;17.416;2023-04-21T10:08:42;101743.94;;;17.66;35.73
12666;BME280;58531;59.050;17.416;2023-04-21T10:11:11;101742.72;;;17.67;36.02
12666;BME280;58531;59.050;17.416;2023-04-21T10:13:40;101735.47;;;17.82;35.70
12666;BME280;58531;59.050;17.416;2023-04-21T10:16:08;101738.56;;;17.98;35.96
12666;BME280;58531;59.050;17.416;2023-04-21T10:18:36;101734.28;;;17.83;35.50
12666;BME280;58531;59.050;17.416;2023-04-21T10:21:06;101717.59;;;17.43;37.96
12666;BME280;58531;59.050;17.416;2023-04-21T10:23:37;101722.63;;;17.59;37.35
12666;BME280;58531;59.050;17.416;2023-04-21T10:26:07;101724.03;;;17.54;36.91
12666;BME280;58531;59.050;17.416;2023-04-21T10:28:53;101721.22;;;17.31;36.72
12666;BME280;58531;59.050;17.416;2023-04-21T10:31:29;101721.19;;;17.40;36.74
12666;BME280;58531;59.050;17.416;2023-04-21T10:34:15;101717.81;;;17.03;37.13
12666;BME280;58531;59.050;17.416;2023-04-21T10:36:48;101714.81;;;17.01;37.70
12666;BME280;58531;59.050;17.416;2023-04-21T10:39:26;101712.06;;;17.19;37.59
12666;BME280;58531;59.050;17.416;2023-04-21T10:41:54;101714.41;;;17.53;36.44
12666;BME280;58531;59.050;17.416;2023-04-21T10:44:24;101707.97;;;17.83;34.45
12666;BME280;58531;59.050;17.416;2023-04-21T10:46:54;101706.06;;;17.75;35.44
12666;BME280;58531;59.050;17.416;2023-04-21T10:49:22;101703.44;;;17.89;35.44
12666;BME280;58531;59.050;17.416;2023-04-21T10:52:06;101703.56;;;18.18;35.78
12666;BME280;58531;59.050;17.416;2023-04-21T10:54:40;101711.06;;;18.23;33.76
12666;BME280;58531;59.050;17.416;2023-04-21T10:57:09;101699.03;;;18.24;34.53
12666;BME280;58531;59.050;17.416;2023-04-21T10:59:38;101702.06;;;18.17;34.12
12666;BME280;58531;59.050;17.416;2023-04-21T11:02:05;101688.56;;;18.17;34.26
12666;BME280;58531;59.050;17.416;2023-04-21T11:04:33;101682.28;;;18.11;34.48
12666;BME280;58531;59.050;17.416;2023-04-21T11:07:07;101686.59;;;18.26;35.31
12666;BME280;58531;59.050;17.416;2023-04-21T11:09:34;101680.88;;;18.48;34.77
12666;BME280;58531;59.050;17.416;2023-04-21T11:12:03;101679.59;;;18.58;34.14
12666;BME280;58531;59.050;17.416;2023-04-21T11:14:32;101679.34;;;18.32;34.16
12666;BME280;58531;59.050;17.416;2023-04-21T11:17:01;101686.63;;;18.17;35.59
12666;BME280;58531;59.050;17.416;2023-04-21T11:19:30;101678.63;;;17.67;35.72
12666;BME280;58531;59.050;17.416;2023-04-21T11:21:57;101675.22;;;17.90;36.97
12666;BME280;58531;59.050;17.416;2023-04-21T11:24:24;101673.97;;;18.00;34.91
12666;BME280;58531;59.050;17.416;2023-04-21T11:26:51;101678.84;;;18.10;36.29
12666;BME280;58531;59.050;17.416;2023-04-21T11:29:18;101663.28;;;18.29;35.50
12666;BME280;58531;59.050;17.416;2023-04-21T11:31:45;101676.97;;;18.49;35.10
12666;BME280;58531;59.050;17.416;2023-04-21T11:34:15;101669.72;;;18.31;34.91
12666;BME280;58531;59.050;17.416;2023-04-21T11:36:46;101667.03;;;18.31;35.29
12666;BME280;58531;59.050;17.416;2023-04-21T11:39:15;101666.72;;;18.53;34.57
12666;BME280;58531;59.050;17.416;2023-04-21T11:41:46;101661.38;;;18.58;34.13
12666;BME280;58531;59.050;17.416;2023-04-21T11:44:16;101659.03;;;18.51;34.46
12666;BME280;58531;59.050;17.416;2023-04-21T11:46:55;101649.41;;;18.36;34.92
12666;BME280;58531;59.050;17.416;2023-04-21T11:49:25;101647.56;;;18.42;34.88
12666;BME280;58531;59.050;17.416;2023-04-21T11:51:54;101652.47;;;18.43;35.09
12666;BME280;58531;59.050;17.416;2023-04-21T11:54:21;101655.88;;;18.53;34.70
12666;BME280;58531;59.050;17.416;2023-04-21T11:56:49;101644.91;;;18.09;34.88
12666;BME280;58531;59.050;17.416;2023-04-21T11:59:17;101655.03;;;17.77;35.40
12666;BME280;58531;59.050;17.416;2023-04-21T12:01:48;101647.38;;;17.75;34.58
12666;BME280;58531;59.050;17.416;2023-04-21T12:04:16;101647.66;;;17.77;34.00
12666;BME280;58531;59.050;17.416;2023-04-21T12:06:46;101629.06;;;17.70;34.37
12666;BME280;58531;59.050;17.416;2023-04-21T12:09:16;101627.94;;;17.85;34.95
12666;BME280;58531;59.050;17.416;2023-04-21T12:11:46;101629.66;;;18.21;34.87
12666;BME280;58531;59.050;17.416;2023-04-21T12:14:14;101621.50;;;18.30;34.53
12666;BME280;58531;59.050;17.416;2023-04-21T12:16:41;101621.09;;;18.22;34.96
12666;BME280;58531;59.050;17.416;2023-04-21T12:19:08;101629.53;;;18.39;34.23
12666;BME280;58531;59.050;17.416;2023-04-21T12:21:36;101628.59;;;18.27;32.85
12666;BME280;58531;59.050;17.416;2023-04-21T12:24:05;101622.41;;;18.27;33.51
12666;BME280;58531;59.050;17.416;2023-04-21T12:26:32;101611.44;;;18.30;32.94
12666;BME280;58531;59.050;17.416;2023-04-21T12:28:59;101617.34;;;18.20;33.74
12666;BME280;58531;59.050;17.416;2023-04-21T12:31:26;101613.09;;;18.28;34.65
12666;BME280;58531;59.050;17.416;2023-04-21T12:33:53;101614.78;;;18.02;34.84
12666;BME280;58531;59.050;17.416;2023-04-21T12:36:21;101609.38;;;18.25;34.85
12666;BME280;58531;59.050;17.416;2023-04-21T12:38:48;101612.66;;;18.29;35.19
12666;BME280;58531;59.050;17.416;2023-04-21T12:41:17;101611.31;;;18.25;35.02
12666;BME280;58531;59.050;17.416;2023-04-21T12:43:43;101612.00;;;18.34;35.65
12666;BME280;58531;59.050;17.416;2023-04-21T12:46:11;101602.28;;;18.42;35.36